Charleston, West Virginia
Current Conditions -  °F | °C
As of 2:54 PM on Thursday 23 Oct 2014 (Local Time) from KCRW Reporting Station
Broken Clouds Broken Clouds  
Wind Chill: 56°   Ceiling: 3100
Heat Index: 56°   Visibility: 10mi
Dew Point: 43°   Wind: 7mph
Humidity: 62%   Direction: 310°NW
Pressure: 30.14"   Gusts: NA
Location:  38.35°N, 81.64°W
Report Text: KCRW 231854Z 31006KT 10SM BKN031 13/06 A3014 RMK AO2 SLP205 T01330061
Loading
Personal Weather Stations






























Interactive Weather Map New forecast layout! Learn more

10-Day Weather Forecast

Advertisements
Track Severe Weather on mobile